FredonyerEastRWIS Atmospheric Data: 02/11/2019 Summary  Detailed Graphs  Station List

  Temperature     Wind Precipitation Visibility
Timestamp Air Wet
Bulb
Dew-
point
24-hr
Max
24-hr
Min
Relative
Humidity
Atmospheric
Pressure
Avg
Speed
Avg
Dir
Spot
Speed
Spot
Dir
Max
Speed
Max
Dir
  Rate Situation Start End 1 hr 3 hr 6 hr 12 hr 24 hr   Situation
Date Time °F °F °F °F °F % in Hg mph ° mph ° mph ° Y/N in/hr text Date Time Date Time in in in in in mi text
02/11/2019 12:08 AM 21.56 19.76 15.62 28.22 15.98 77.0 Not Reported 8.95 SW 7.61 SW 9.84 S No 0.000 No Precipitation 02/10/2019 02:34 PM 02/10/2019 02:39 PM 0.000 0.000 0.000 0.008 0.043 Not Reported Not Reported
02/11/2019 12:23 AM 21.56 19.94 15.62 28.22 15.98 77.0 Not Reported 4.03 SW 3.36 SW 9.84 SW No 0.000 No Precipitation 02/10/2019 02:34 PM 02/10/2019 02:39 PM 0.000 0.000 0.000 0.008 0.043 Not Reported Not Reported
02/11/2019 12:38 AM 21.56 19.94 15.62 28.22 15.98 77.0 Not Reported 4.25 S 2.91 W 9.40 SW No 0.000 No Precipitation 02/10/2019 02:34 PM 02/10/2019 02:39 PM 0.000 0.000 0.000 0.008 0.039 Not Reported Not Reported
02/11/2019 12:53 AM 21.74 19.76 15.08 28.22 15.98 75.0 Not Reported 3.36 S 5.14 NW 8.50 SW No 0.000 No Precipitation 02/10/2019 02:34 PM 02/10/2019 02:39 PM 0.000 0.000 0.000 0.004 0.039 Not Reported Not Reported
02/11/2019 01:08 AM 22.10 19.94 14.18 28.22 15.98 71.0 Not Reported 4.03 SW 4.70 S 7.61 SW No 0.000 No Precipitation 02/10/2019 02:34 PM 02/10/2019 02:39 PM 0.000 0.000 0.000 0.004 0.039 Not Reported Not Reported
02/11/2019 01:23 AM 22.46 20.30 14.54 28.22 15.98 71.0 Not Reported 7.61 SW 6.26 SW 10.51 NW No 0.000 No Precipitation 02/10/2019 02:34 PM 02/10/2019 02:39 PM 0.000 0.000 0.000 0.004 0.035 Not Reported Not Reported
02/11/2019 01:38 AM 22.82 20.66 15.08 28.22 15.98 72.0 Not Reported 5.59 SW 6.26 S 10.96 SW No 0.000 No Precipitation 02/10/2019 02:34 PM 02/10/2019 02:39 PM 0.000 0.000 0.000 0.004 0.035 Not Reported Not Reported
02/11/2019 01:53 AM 22.82 20.66 15.44 28.22 15.98 73.0 Not Reported 5.14 SW 9.17 W 11.18 SW No 0.000 No Precipitation 02/10/2019 02:34 PM 02/10/2019 02:39 PM 0.000 0.000 0.000 0.004 0.031 Not Reported Not Reported
02/11/2019 02:08 AM 22.82 20.84 15.98 28.22 15.98 75.0 Not Reported 5.82 W 9.40 SW 10.74 W No 0.000 No Precipitation 02/10/2019 02:34 PM 02/10/2019 02:39 PM 0.000 0.000 0.000 0.004 0.031 Not Reported Not Reported
02/11/2019 02:23 AM 22.82 21.02 16.16 28.22 15.98 75.0 Not Reported 6.04 SW 6.04 S 11.18 SW No 0.000 No Precipitation 02/10/2019 02:34 PM 02/10/2019 02:39 PM 0.000 0.000 0.000 0.004 0.031 Not Reported Not Reported
02/11/2019 02:38 AM 22.82 20.84 16.16 28.22 15.98 75.0 Not Reported 5.82 SW 9.40 SW 12.08 SW No 0.000 No Precipitation 02/10/2019 02:34 PM 02/10/2019 02:39 PM 0.000 0.000 0.000 0.000 0.031 Not Reported Not Reported
02/11/2019 02:53 AM 22.64 20.84 16.34 28.22 15.98 76.0 Not Reported 4.70 SW 4.25 S 10.74 SW No 0.000 No Precipitation 02/10/2019 02:34 PM 02/10/2019 02:39 PM 0.000 0.000 0.000 0.000 0.031 Not Reported Not Reported
02/11/2019 03:08 AM 22.64 20.66 15.44 28.22 15.98 73.0 Not Reported 6.04 SW 6.26 SW 11.41 SW No 0.000 No Precipitation 02/10/2019 02:34 PM 02/10/2019 02:39 PM 0.000 0.000 0.000 0.000 0.031 Not Reported Not Reported
02/11/2019 03:23 AM 22.82 20.66 15.44 28.22 15.98 72.0 Not Reported 7.83 S 2.68 NW 8.50 S No 0.000 No Precipitation 02/10/2019 02:34 PM 02/10/2019 02:39 PM 0.000 0.000 0.000 0.000 0.028 Not Reported Not Reported
02/11/2019 03:38 AM 22.82 20.66 15.44 28.22 15.98 73.0 Not Reported 4.70 SW 5.59 S 9.40 SE No 0.000 No Precipitation 02/10/2019 02:34 PM 02/10/2019 02:39 PM 0.000 0.000 0.000 0.000 0.028 Not Reported Not Reported
02/11/2019 03:53 AM 23.00 20.84 15.80 28.22 15.98 73.0 Not Reported 5.37 SW 5.82 S 11.63 SW No 0.000 No Precipitation 02/10/2019 02:34 PM 02/10/2019 02:39 PM 0.000 0.000 0.000 0.000 0.028 Not Reported Not Reported
02/11/2019 04:08 AM 22.82 20.66 15.26 28.22 15.98 72.0 Not Reported 3.58 S 1.79 NE 8.95 NW No 0.000 No Precipitation 02/10/2019 02:34 PM 02/10/2019 02:39 PM 0.000 0.000 0.000 0.000 0.028 Not Reported Not Reported
02/11/2019 04:23 AM 22.64 20.66 15.62 28.22 15.98 73.0 Not Reported 2.24 SW 0.67 NW 9.17 SW No 0.000 No Precipitation 02/10/2019 02:34 PM 02/10/2019 02:39 PM 0.000 0.000 0.000 0.000 0.028 Not Reported Not Reported
02/11/2019 04:38 AM 22.64 20.48 15.08 28.22 15.98 72.0 Not Reported 4.47 S 4.70 W 8.95 SW No 0.000 No Precipitation 02/10/2019 02:34 PM 02/10/2019 02:39 PM 0.000 0.000 0.000 0.000 0.028 Not Reported Not Reported
02/11/2019 04:53 AM 22.64 20.66 15.80 28.22 15.98 74.0 Not Reported 3.58 SE 3.13 SW 8.95 S No 0.000 No Precipitation 02/10/2019 02:34 PM 02/10/2019 02:39 PM 0.000 0.000 0.000 0.000 0.028 Not Reported Not Reported
02/11/2019 05:09 AM 22.64 20.84 16.16 28.22 15.98 75.0 Not Reported 2.01 SW 0.67 E 6.04 S No 0.000 No Precipitation 02/10/2019 02:34 PM 02/10/2019 02:39 PM 0.000 0.000 0.000 0.000 0.028 Not Reported Not Reported
02/11/2019 05:23 AM 22.46 20.66 15.80 28.22 15.98 74.0 Not Reported 3.58 SW 3.36 W 5.14 S No 0.000 No Precipitation 02/10/2019 02:34 PM 02/10/2019 02:39 PM 0.000 0.000 0.000 0.000 0.028 Not Reported Not Reported
02/11/2019 05:38 AM 22.46 20.66 15.80 28.22 15.98 75.0 Not Reported 2.91 W 1.79 SW 8.28 S No 0.000 No Precipitation 02/10/2019 02:34 PM 02/10/2019 02:39 PM 0.000 0.000 0.000 0.000 0.028 Not Reported Not Reported
02/11/2019 05:53 AM 22.46 20.48 15.62 28.22 15.98 74.0 Not Reported 4.03 S 1.34 W 8.95 SW No 0.000 No Precipitation 02/10/2019 02:34 PM 02/10/2019 02:39 PM 0.000 0.000 0.000 0.000 0.028 Not Reported Not Reported
02/11/2019 06:08 AM 22.64 20.66 15.80 28.22 15.98 74.0 Not Reported 4.70 S 4.92 S 7.61 SE No 0.000 No Precipitation 02/10/2019 02:34 PM 02/10/2019 02:39 PM 0.000 0.000 0.000 0.000 0.028 Not Reported Not Reported
02/11/2019 06:23 AM 22.64 20.66 15.98 28.22 15.98 75.0 Not Reported 1.57 NW 2.68 SW 8.05 SW No 0.000 No Precipitation 02/10/2019 02:34 PM 02/10/2019 02:39 PM 0.000 0.000 0.000 0.000 0.028 Not Reported Not Reported
02/11/2019 06:38 AM 22.64 20.66 15.98 28.22 15.98 75.0 Not Reported 0.89 N 1.57 NW 6.71 S No 0.000 No Precipitation 02/10/2019 02:34 PM 02/10/2019 02:39 PM 0.000 0.000 0.000 0.000 0.028 Not Reported Not Reported
02/11/2019 06:53 AM 23.00 20.84 15.62 28.22 15.98 73.0 Not Reported 3.36 S 4.92 S 4.03 SW No 0.000 No Precipitation 02/10/2019 02:34 PM 02/10/2019 02:39 PM 0.000 0.000 0.000 0.000 0.028 Not Reported Not Reported
02/11/2019 07:08 AM 22.82 21.02 16.34 28.22 15.98 75.0 Not Reported 4.25 SE 4.03 SE 6.26 SE No 0.000 No Precipitation 02/10/2019 02:34 PM 02/10/2019 02:39 PM 0.000 0.000 0.000 0.000 0.028 Not Reported Not Reported
02/11/2019 07:23 AM 22.82 21.02 16.70 28.22 16.88 77.0 Not Reported 2.01 SE 6.04 SE 6.71 SE No 0.000 No Precipitation 02/10/2019 02:34 PM 02/10/2019 02:39 PM 0.000 0.000 0.000 0.000 0.028 Not Reported Not Reported
02/11/2019 07:38 AM 23.00 21.20 16.70 28.22 17.24 76.0 Not Reported 5.82 S 4.25 SE 8.50 S No 0.000 No Precipitation 02/10/2019 02:34 PM 02/10/2019 02:39 PM 0.000 0.000 0.000 0.000 0.028 Not Reported Not Reported
02/11/2019 07:53 AM 23.18 21.20 16.70 28.22 17.60 75.0 Not Reported 3.80 S 4.92 SE 6.71 S No 0.000 No Precipitation 02/10/2019 02:34 PM 02/10/2019 02:39 PM 0.000 0.000 0.000 0.000 0.028 Not Reported Not Reported
02/11/2019 08:08 AM 23.36 21.20 16.34 28.22 17.60 74.0 Not Reported 4.70 SE 7.61 S 5.59 S No 0.000 No Precipitation 02/10/2019 02:34 PM 02/10/2019 02:39 PM 0.000 0.000 0.000 0.000 0.028 Not Reported Not Reported
02/11/2019 08:23 AM 23.90 21.74 16.70 28.22 17.60 73.0 Not Reported 5.82 S 5.37 S 6.26 N No 0.000 No Precipitation 02/10/2019 02:34 PM 02/10/2019 02:39 PM 0.000 0.000 0.000 0.000 0.028 Not Reported Not Reported
02/11/2019 08:38 AM 24.08 21.92 16.88 28.22 17.60 73.0 Not Reported 5.14 SE 4.92 S 7.16 S No 0.000 No Precipitation 02/10/2019 02:34 PM 02/10/2019 02:39 PM 0.000 0.000 0.000 0.000 0.028 Not Reported Not Reported
02/11/2019 08:53 AM 24.26 22.10 17.06 28.22 17.60 73.0 Not Reported 2.91 SW 8.05 S 7.16 SW No 0.000 No Precipitation 02/10/2019 02:34 PM 02/10/2019 02:39 PM 0.000 0.000 0.000 0.000 0.028 Not Reported Not Reported
02/11/2019 09:08 AM 24.44 22.28 17.06 28.22 17.60 73.0 Not Reported 5.14 SE 6.49 W 9.40 S No 0.000 No Precipitation 02/10/2019 02:34 PM 02/10/2019 02:39 PM 0.000 0.000 0.000 0.000 0.028 Not Reported Not Reported
02/11/2019 09:23 AM 24.62 22.46 17.42 28.22 17.60 74.0 Not Reported 4.25 S 1.79 S 6.71 S No 0.000 No Precipitation 02/10/2019 02:34 PM 02/10/2019 02:39 PM 0.000 0.000 0.000 0.000 0.028 Not Reported Not Reported
02/11/2019 09:38 AM 24.98 22.64 17.24 28.22 17.60 71.0 Not Reported 5.59 SW 1.57 SW 7.61 SW No 0.000 No Precipitation 02/10/2019 02:34 PM 02/10/2019 02:39 PM 0.000 0.000 0.000 0.000 0.028 Not Reported Not Reported
02/11/2019 09:53 AM 26.06 23.54 17.42 28.22 17.60 69.0 Not Reported 4.25 S 7.38 S 6.26 SE No 0.000 No Precipitation 02/10/2019 02:34 PM 02/10/2019 02:39 PM 0.000 0.000 0.000 0.000 0.028 Not Reported Not Reported
02/11/2019 10:08 AM 25.70 23.18 17.06 28.22 17.60 69.0 Not Reported 3.58 S 1.34 E 7.61 S No 0.000 No Precipitation 02/10/2019 02:34 PM 02/10/2019 02:39 PM 0.000 0.000 0.000 0.000 0.028 Not Reported Not Reported
02/11/2019 10:23 AM 26.06 23.36 17.06 28.22 17.60 68.0 Not Reported 6.71 SE 6.71 S 9.84 SE No 0.000 No Precipitation 02/10/2019 02:34 PM 02/10/2019 02:39 PM 0.000 0.000 0.000 0.000 0.020 Not Reported Not Reported
02/11/2019 10:38 AM 25.88 23.36 17.42 28.22 17.60 69.0 Not Reported 8.05 S 6.93 SW 8.95 SE No 0.000 No Precipitation 02/10/2019 02:34 PM 02/10/2019 02:39 PM 0.000 0.000 0.000 0.000 0.020 Not Reported Not Reported
02/11/2019 10:53 AM 26.42 23.54 16.70 28.22 17.60 66.0 Not Reported 8.50 S 6.93 SW 9.62 S No 0.000 No Precipitation 02/10/2019 02:34 PM 02/10/2019 02:39 PM 0.000 0.000 0.000 0.000 0.020 Not Reported Not Reported
02/11/2019 11:08 AM 27.86 24.80 17.78 28.22 17.60 65.0 Not Reported 8.05 S 9.40 S 9.40 S No 0.000 No Precipitation 02/10/2019 02:34 PM 02/10/2019 02:39 PM 0.000 0.000 0.000 0.000 0.020 Not Reported Not Reported
02/11/2019 11:23 AM 27.32 24.26 17.78 28.22 17.60 67.0 Not Reported 5.82 SE 4.03 SE 11.18 SE No 0.000 No Precipitation 02/10/2019 02:34 PM 02/10/2019 02:39 PM 0.000 0.000 0.000 0.000 0.020 Not Reported Not Reported
02/11/2019 11:38 AM 28.40 25.16 17.96 28.58 17.60 64.0 Not Reported 2.68 W 1.79 S 7.61 SW No 0.000 No Precipitation 02/10/2019 02:34 PM 02/10/2019 02:39 PM 0.000 0.000 0.000 0.000 0.020 Not Reported Not Reported
02/11/2019 11:53 AM 28.40 25.16 17.96 30.38 17.60 64.0 Not Reported 6.93 S 8.50 SW 8.50 S No 0.000 No Precipitation 02/10/2019 02:34 PM 02/10/2019 02:39 PM 0.000 0.000 0.000 0.000 0.016 Not Reported Not Reported
02/11/2019 12:08 PM 27.68 24.80 17.96 30.38 17.60 66.0 Not Reported 3.36 SW 5.37 S 10.29 S No 0.000 No Precipitation 02/10/2019 02:34 PM 02/10/2019 02:39 PM 0.000 0.000 0.000 0.000 0.008 Not Reported Not Reported
02/11/2019 12:23 PM 28.22 24.98 17.96 30.38 17.60 64.0 Not Reported 8.05 SE 7.61 S 9.84 SE No 0.000 No Precipitation 02/10/2019 02:34 PM 02/10/2019 02:39 PM 0.000 0.000 0.000 0.000 0.008 Not Reported Not Reported
02/11/2019 12:38 PM 28.76 25.34 17.78 30.38 17.60 63.0 Not Reported 3.36 SW 2.46 S 10.51 SE No 0.000 No Precipitation 02/10/2019 02:34 PM 02/10/2019 02:39 PM 0.000 0.000 0.000 0.000 0.008 Not Reported Not Reported
02/11/2019 12:53 PM 29.48 25.88 18.14 30.38 17.60 62.0 Not Reported 5.14 SW 7.61 SE 8.05 SE No 0.000 No Precipitation 02/10/2019 02:34 PM 02/10/2019 02:39 PM 0.000 0.000 0.000 0.000 0.004 Not Reported Not Reported
02/11/2019 01:08 PM 29.66 25.88 17.42 30.38 17.60 59.0 Not Reported 6.04 SE 9.17 S 9.62 S No 0.000 No Precipitation 02/10/2019 02:34 PM 02/10/2019 02:39 PM 0.000 0.000 0.000 0.000 0.004 Not Reported Not Reported
02/11/2019 01:23 PM 30.74 26.78 18.32 30.92 17.60 59.0 Not Reported 4.25 S 4.25 S 13.20 SW No 0.000 No Precipitation 02/10/2019 02:34 PM 02/10/2019 02:39 PM 0.000 0.000 0.000 0.000 0.004 Not Reported Not Reported
02/11/2019 01:38 PM 31.10 26.60 16.70 32.00 17.60 54.0 Not Reported 6.49 SW 7.38 W 11.18 S No 0.000 No Precipitation 02/10/2019 02:34 PM 02/10/2019 02:39 PM 0.000 0.000 0.000 0.000 0.004 Not Reported Not Reported
02/11/2019 01:53 PM 31.82 27.32 17.42 32.18 17.60 54.0 Not Reported 6.04 SW 7.16 W 11.41 SW No 0.000 No Precipitation 02/10/2019 02:34 PM 02/10/2019 02:39 PM 0.000 0.000 0.000 0.000 0.004 Not Reported Not Reported
02/11/2019 02:08 PM 32.00 27.50 17.42 32.54 17.60 53.0 Not Reported 6.26 SW 4.03 SW 13.42 SW No 0.000 No Precipitation 02/10/2019 02:34 PM 02/10/2019 02:39 PM 0.000 0.000 0.000 0.000 0.004 Not Reported Not Reported
02/11/2019 02:23 PM 32.00 27.50 17.60 32.54 17.60 54.0 Not Reported 3.36 NW 6.04 SW 12.53 W No 0.000 No Precipitation 02/10/2019 02:34 PM 02/10/2019 02:39 PM 0.000 0.000 0.000 0.000 0.004 Not Reported Not Reported
02/11/2019 02:38 PM 32.54 28.22 18.50 32.72 17.60 55.0 Not Reported 5.37 W 3.13 SE 11.86 W No 0.000 No Precipitation 02/10/2019 02:34 PM 02/10/2019 02:39 PM 0.000 0.000 0.000 0.000 0.000 Not Reported Not Reported
02/11/2019 02:53 PM 32.00 27.32 17.24 33.08 17.60 53.0 Not Reported 4.25 S 8.50 W 8.50 SW No 0.000 No Precipitation 02/10/2019 02:34 PM 02/10/2019 02:39 PM 0.000 0.000 0.000 0.000 0.000 Not Reported Not Reported
02/11/2019 03:08 PM 31.64 27.32 17.96 33.08 17.60 56.0 Not Reported 4.25 SW 4.70 SW 8.50 W No 0.000 No Precipitation 02/10/2019 02:34 PM 02/10/2019 02:39 PM 0.000 0.000 0.000 0.000 0.000 Not Reported Not Reported
02/11/2019 03:23 PM 30.56 26.60 18.14 33.08 17.60 59.0 Not Reported 6.04 S 0.89 SW 10.74 S No 0.000 No Precipitation 02/10/2019 02:34 PM 02/10/2019 02:39 PM 0.000 0.000 0.000 0.000 0.000 Not Reported Not Reported
02/11/2019 03:38 PM 30.74 26.96 19.04 33.08 17.60 61.0 Not Reported 4.70 W 7.61 NW 7.83 SW No 0.000 No Precipitation 02/10/2019 02:34 PM 02/10/2019 02:39 PM 0.000 0.000 0.000 0.000 0.000 Not Reported Not Reported
02/11/2019 03:53 PM 29.48 26.24 19.76 33.08 17.60 66.0 Not Reported 2.68 S 1.79 E 8.28 SW No 0.000 No Precipitation 02/10/2019 02:34 PM 02/10/2019 02:39 PM 0.000 0.000 0.000 0.000 0.000 Not Reported Not Reported
02/11/2019 04:08 PM 28.76 26.06 20.12 33.08 17.60 69.0 Not Reported 3.36 SW 4.47 NW 6.26 SW No 0.000 No Precipitation 02/10/2019 02:34 PM 02/10/2019 02:39 PM 0.000 0.000 0.000 0.000 0.000 Not Reported Not Reported
02/11/2019 04:23 PM 28.40 25.88 20.48 33.08 17.60 71.0 Not Reported 5.14 S 3.80 S 7.83 S No 0.000 No Precipitation 02/10/2019 02:34 PM 02/10/2019 02:39 PM 0.000 0.000 0.000 0.000 0.000 Not Reported Not Reported
02/11/2019 04:38 PM 28.04 25.34 19.76 33.08 17.60 70.0 Not Reported 5.59 SW 5.82 W 6.49 S No 0.000 No Precipitation 02/10/2019 02:34 PM 02/10/2019 02:39 PM 0.000 0.000 0.000 0.000 0.000 Not Reported Not Reported
02/11/2019 04:53 PM 27.68 25.34 19.94 33.08 17.60 72.0 Not Reported 6.71 S 6.04 SW 4.47 SE No 0.000 No Precipitation 02/10/2019 02:34 PM 02/10/2019 02:39 PM 0.000 0.000 0.000 0.000 0.000 Not Reported Not Reported
02/11/2019 05:08 PM 27.50 25.16 20.12 33.08 17.60 73.0 Not Reported 3.80 S 3.13 W 10.51 SE No 0.000 No Precipitation 02/10/2019 02:34 PM 02/10/2019 02:39 PM 0.000 0.000 0.000 0.000 0.000 Not Reported Not Reported
02/11/2019 05:23 PM 27.32 24.98 19.76 33.08 17.60 72.0 Not Reported 3.58 W 1.79 S 6.49 S No 0.000 No Precipitation 02/10/2019 02:34 PM 02/10/2019 02:39 PM 0.000 0.000 0.000 0.000 0.000 Not Reported Not Reported
02/11/2019 05:38 PM 27.14 24.80 19.94 33.08 17.60 74.0 Not Reported 2.91 S 1.12 SE 7.16 SE No 0.000 No Precipitation 02/10/2019 02:34 PM 02/10/2019 02:39 PM 0.000 0.000 0.000 0.000 0.000 Not Reported Not Reported
02/11/2019 05:53 PM 26.96 24.80 19.94 33.08 17.60 74.0 Not Reported 4.25 SE 1.12 N 6.49 S No 0.000 No Precipitation 02/10/2019 02:34 PM 02/10/2019 02:39 PM 0.000 0.000 0.000 0.000 0.000 Not Reported Not Reported
02/11/2019 06:08 PM 26.96 24.62 19.94 33.08 17.60 74.0 Not Reported 1.57 W 1.34 SW 6.49 SW No 0.000 No Precipitation 02/10/2019 02:34 PM 02/10/2019 02:39 PM 0.000 0.000 0.000 0.000 0.000 Not Reported Not Reported
02/11/2019 06:23 PM 26.78 24.44 19.40 33.08 17.60 73.0 Not Reported 2.91 SW 2.01 SE 6.26 S No 0.000 No Precipitation 02/10/2019 02:34 PM 02/10/2019 02:39 PM 0.000 0.000 0.000 0.000 0.000 Not Reported Not Reported
02/11/2019 06:38 PM 26.60 24.44 19.58 33.08 17.60 74.0 Not Reported 5.82 SW 4.92 W 5.59 S No 0.000 No Precipitation 02/10/2019 02:34 PM 02/10/2019 02:39 PM 0.000 0.000 0.000 0.000 0.000 Not Reported Not Reported
02/11/2019 06:53 PM 26.42 24.08 18.86 33.08 17.60 72.0 Not Reported 5.37 W 7.16 W 6.93 S No 0.000 No Precipitation 02/10/2019 02:34 PM 02/10/2019 02:39 PM 0.000 0.000 0.000 0.000 0.000 Not Reported Not Reported
02/11/2019 07:08 PM 26.24 23.90 19.04 33.08 17.60 73.0 Not Reported 3.36 SW 4.70 N 7.16 W No 0.000 No Precipitation 02/10/2019 02:34 PM 02/10/2019 02:39 PM 0.000 0.000 0.000 0.000 0.000 Not Reported Not Reported
02/11/2019 07:23 PM 26.06 23.72 18.86 33.08 17.60 74.0 Not Reported 1.57 N 8.05 W 6.93 W No 0.000 No Precipitation 02/10/2019 02:34 PM 02/10/2019 02:39 PM 0.000 0.000 0.000 0.000 0.000 Not Reported Not Reported
02/11/2019 07:38 PM 25.70 23.72 18.86 33.08 17.60 75.0 Not Reported 3.13 NW 2.68 SW 8.05 W No 0.000 No Precipitation 02/10/2019 02:34 PM 02/10/2019 02:39 PM 0.000 0.000 0.000 0.000 0.000 Not Reported Not Reported
02/11/2019 07:53 PM 26.06 23.72 18.50 33.08 17.60 72.0 Not Reported 3.36 SW 2.24 W 7.38 SW No 0.000 No Precipitation 02/10/2019 02:34 PM 02/10/2019 02:39 PM 0.000 0.000 0.000 0.000 0.000 Not Reported Not Reported
02/11/2019 08:08 PM 25.34 23.36 18.68 33.08 18.86 75.0 Not Reported 4.25 W 1.79 SW 6.49 S No 0.000 No Precipitation 02/10/2019 02:34 PM 02/10/2019 02:39 PM 0.000 0.000 0.000 0.000 0.000 Not Reported Not Reported
02/11/2019 08:23 PM 24.26 22.46 18.68 33.08 18.86 78.0 Not Reported 1.57 NW 2.01 NE 6.93 W No 0.000 No Precipitation 02/10/2019 02:34 PM 02/10/2019 02:39 PM 0.000 0.000 0.000 0.000 0.000 Not Reported Not Reported
02/11/2019 08:38 PM 22.28 21.02 17.96 33.08 18.86 82.0 Not Reported 1.34 N 1.34 NW 2.91 W No 0.000 No Precipitation 02/10/2019 02:34 PM 02/10/2019 02:39 PM 0.000 0.000 0.000 0.000 0.000 Not Reported Not Reported
02/11/2019 08:53 PM 20.12 19.04 16.52 33.08 18.86 85.0 Not Reported 1.12 NW 0.67 E 2.01 N No 0.000 No Precipitation 02/10/2019 02:34 PM 02/10/2019 02:39 PM 0.000 0.000 0.000 0.000 0.000 Not Reported Not Reported
02/11/2019 09:08 PM 19.58 18.50 15.62 33.08 18.86 84.0 Not Reported 0.89 N 0.00 N 2.01 NW No 0.000 No Precipitation 02/10/2019 02:34 PM 02/10/2019 02:39 PM 0.000 0.000 0.000 0.000 0.000 Not Reported Not Reported
02/11/2019 09:23 PM 17.78 16.88 14.54 33.08 17.78 87.0 Not Reported 1.34 N 0.45 NW 2.01 NE No 0.000 No Precipitation 02/10/2019 02:34 PM 02/10/2019 02:39 PM 0.000 0.000 0.000 0.000 0.000 Not Reported Not Reported
02/11/2019 09:38 PM 17.42 16.70 14.90 33.08 17.24 90.0 Not Reported 1.79 N 0.45 N 2.46 NW No 0.000 No Precipitation 02/10/2019 02:34 PM 02/10/2019 02:39 PM 0.000 0.000 0.000 0.000 0.000 Not Reported Not Reported
02/11/2019 09:53 PM 16.88 16.16 14.36 33.08 16.88 90.0 Not Reported 0.89 NW 1.57 N 2.46 N No 0.000 No Precipitation 02/10/2019 02:34 PM 02/10/2019 02:39 PM 0.000 0.000 0.000 0.000 0.000 Not Reported Not Reported
02/11/2019 10:08 PM 16.16 15.44 13.82 33.08 15.98 91.0 Not Reported 1.34 NW 2.24 NW 1.79 N No 0.000 No Precipitation 02/10/2019 02:34 PM 02/10/2019 02:39 PM 0.000 0.000 0.000 0.000 0.000 Not Reported Not Reported
02/11/2019 10:23 PM 15.44 15.08 13.82 33.08 15.26 92.0 Not Reported 0.00 W 1.12 N 1.79 NW No 0.000 No Precipitation 02/10/2019 02:34 PM 02/10/2019 02:39 PM 0.000 0.000 0.000 0.000 0.000 Not Reported Not Reported
02/11/2019 10:38 PM 14.72 14.18 13.10 33.08 14.72 93.0 Not Reported 0.67 N 0.67 W 1.57 NW No 0.000 No Precipitation 02/10/2019 02:34 PM 02/10/2019 02:39 PM 0.000 0.000 0.000 0.000 0.000 Not Reported Not Reported
02/11/2019 10:53 PM 13.82 13.46 12.38 33.08 13.64 94.0 Not Reported 0.00 N 0.00 SW 2.01 N No 0.000 No Precipitation 02/10/2019 02:34 PM 02/10/2019 02:39 PM 0.000 0.000 0.000 0.000 0.000 Not Reported Not Reported
02/11/2019 11:08 PM 13.28 12.92 12.02 33.08 13.10 94.0 Not Reported 0.22 N 0.22 NW 1.57 S No 0.000 No Precipitation 02/10/2019 02:34 PM 02/10/2019 02:39 PM 0.000 0.000 0.000 0.000 0.000 Not Reported Not Reported
02/11/2019 11:23 PM 13.10 12.92 12.02 33.08 12.74 95.0 Not Reported 0.89 W 0.00 W 1.34 W No 0.000 No Precipitation 02/10/2019 02:34 PM 02/10/2019 02:39 PM 0.000 0.000 0.000 0.000 0.000 Not Reported Not Reported
02/11/2019 11:38 PM 12.92 12.56 11.66 33.08 12.56 94.0 Not Reported 0.45 NW 0.89 NW 2.01 NW No 0.000 No Precipitation 02/10/2019 02:34 PM 02/10/2019 02:39 PM 0.000 0.000 0.000 0.000 0.000 Not Reported Not Reported
02/11/2019 11:53 PM 12.38 12.20 11.12 33.08 12.38 94.0 Not Reported 0.00 N 0.00 NW 1.79 N No 0.000 No Precipitation 02/10/2019 02:34 PM 02/10/2019 02:39 PM 0.000 0.000 0.000 0.000 0.000 Not Reported Not Reported